Race Results for…
Reedley "College to Parkway" 2018

February 24, 2018 Results presented by Reedley College and timed by Central Valley Timing
Participants:
109
Last Updated:
2/24/2018 11:04:51 AM
Stats

Leaderboards

Jump to a Leaderboard

5K

Male - Overall
Bib Name Chip Elapsed Pace City Age
1 171 ABEL CORTEZ JR 00:24:20 04:52 min/km REEDLEY 37
2 182 ADAN VASQUEZ 00:26:29 05:17 min/km REEDLEY 13
3 167 MYLES BACON 00:26:39 05:19 min/km REEDLEY 38
Female - Overall
Bib Name Chip Elapsed Pace City Age
1 181 KELLY WIGTON 00:26:29 05:17 min/km HANFORD 32
2 166 JACQUIE BACON 00:34:56 06:59 min/km REEDLEY 37
3 222 KATHERINE MARTINEZ 00:36:36 07:19 min/km 18

10K

Male - Overall
Bib Name Chip Elapsed Pace City Age
1 210 ALEJANDRO VILLEGAS 00:47:36 04:45 min/km 27
2 178 ERIC FRANKLIN 00:55:30 05:33 min/km FRESNO 36
3 193 MATT MOORE 00:57:33 05:45 min/km SANGER 55
Female - Overall
Bib Name Chip Elapsed Pace City Age
1 202 CADENCE ESTERMANN 00:51:05 05:06 min/km VISALIA 13
2 200 HANNAH TOROSIAN 01:00:36 06:03 min/km CLOVIS 19
3 192 DEBRA MONTGOMERY 01:01:21 06:08 min/km SQUAW VALLEY 54

Overall Results

Tip: Swipe the results table to view more.
92 entrants …
5K Results
Bib Name Chip Elapsed Age Division Gender City Gender Place Div Place Age Place Pace
171 ABEL CORTEZ JR 00:24:20 37 5K M REEDLEY 1 1 O/A 04:52 min/km
182 ADAN VASQUEZ 00:26:29 13 5K M REEDLEY 2 2 O/A 05:17 min/km
181 KELLY WIGTON 00:26:29 32 5K F HANFORD 1 3 O/A 05:17 min/km
167 MYLES BACON 00:26:39 38 5K M REEDLEY 3 4 O/A 05:19 min/km
235 SAMUEL ESCARENO 00:27:00 42 5K M 4 5 1 05:24 min/km
163 ANDREW ESCAMILLA 00:29:31 40 5K M REEDLEY 5 6 1 05:54 min/km
156 DOMINGO ZAPATA 00:29:45 60 5K M REEDLEY 6 7 1 05:57 min/km
153 KYLE BACON 00:34:02 8 5K M REEDLEY 7 8 1 06:48 min/km
266 JOHN HEATHCOTE 00:34:04 50 5K M 8 9 2 06:48 min/km
159 JUSTIN ESTERMANN 00:34:28 41 5K M VISALIA 9 10 3 06:53 min/km
166 JACQUIE BACON 00:34:56 37 5K F REEDLEY 2 11 O/A 06:59 min/km
246 DAVID SANDOVAL 00:35:34 9 5K M 10 12 2 07:06 min/km
247 ANTONIO SANDOVAL 00:35:35 16 5K M 11 13 1 07:07 min/km
350 LUIS SANDOVAL 00:35:36 21 5K M 12 14 1 07:07 min/km
222 KATHERINE MARTINEZ 00:36:36 18 5K F 3 15 O/A 07:19 min/km
217 ARY PANTELEON 00:36:46 13 5K M 13 16 2 07:21 min/km
164 YOLANDA ESCAMILLA 00:36:52 40 5K F REEDLEY 4 17 1 07:22 min/km
165 CINDY DOMINGUE 00:37:07 34 5K F VISALIA 5 18 2 07:25 min/km
231 AGUSTIN URZUA 00:37:52 71 5K M 14 19 1 07:34 min/km
169 JAIME HORIO 00:38:02 35 5K M CLOVIS 15 20 2 07:36 min/km
170 ANTHONY BISHOP 00:38:03 35 5K M FRESNO 16 21 3 07:36 min/km
233 CAROLINA ESTRADA 00:38:18 41 5K F 6 22 1 07:39 min/km
179 ASHLEY CALHOUN 00:38:47 35 5K F KINGSBURG 7 23 3 07:45 min/km
232 JUAN LEMUS 00:39:04 19 5K M 17 24 3 07:48 min/km
184 EDGAR ESCOBEDO 00:39:18 53 5K M CLOVIS 18 25 2 07:51 min/km
175 JIM TOEWS 00:39:52 69 5K M REEDLEY 19 26 2 07:58 min/km
183 ELIZABETH ESCOBEDO 00:39:52 52 5K F CLOVIS 8 27 1 07:58 min/km
160 ROSA HERNANDEZ 00:41:39 50 5K F REEDLEY 9 28 2 08:19 min/km
189 PAOLA SANCHEZ 00:42:05 35 5K F DINUBA 10 29 4 08:25 min/km
286 ELIZA MAESTAS 00:44:26 49 5K F 11 30 3 08:53 min/km
218 KATHERINE MARTINEZ 00:44:40 18 5K F 12 31 1 08:56 min/km
225 SARINA IBARRA 00:44:56 44 5K F 13 32 4 08:59 min/km
238 ANA PANTALEON 00:46:10 38 5K F 14 33 5 09:14 min/km
236 MANA ESSTRADA 00:46:15 51 5K F 15 34 2 09:15 min/km
241 CELESTINA RAMOS 00:48:13 12 5K F 16 35 2 09:38 min/km
188 TROIANNE SIMPSON 00:48:48 36 5K F LEMOORE 17 36 6 09:45 min/km
157 GLEN BORLAND 00:49:34 59 5K M DINUBA 20 37 3 09:54 min/km
158 LEAH TOROSIAN 00:49:51 46 5K F KINGSBURG 18 38 5 09:58 min/km
211 MA CONCEPCION GUTIERREZ 00:51:36 50 5K F 19 39 6 10:19 min/km
289 ANDREA VIZCARRA 00:53:13 26 5K F 20 40 1 10:38 min/km
185 LORENE DOSTER 00:53:44 57 5K F REEDLEY 21 41 3 10:44 min/km
227 JOSIE JAUREGI 00:55:21 49 5K F 22 42 7 11:04 min/km
212 CLAUDIA LARA 00:55:22 30 5K F 23 43 2 11:04 min/km
226 NEDA ROMAN 00:55:22 24 5K F 24 44 3 11:04 min/km
230 LUZ CASAREZ 00:55:38 67 5K F 25 45 1 11:07 min/km
209 MARIA QUINTANILLA 00:55:47 73 5K F 26 46 2 11:09 min/km
228 SUSAN RANALLOI 00:55:48 47 5K F 27 47 8 11:09 min/km
219 ANITA BETANCOURT 00:55:48 69 5K F 28 48 3 11:09 min/km
277 MIRIAN VIERA 00:57:23 20 5K F 29 49 3 11:28 min/km
272 MATTHEW MORA 00:57:24 22 5K M 21 50 2 11:28 min/km
92 entrants …

Winners

Tip: Slide the results table left and right to view more.
Overall
Bib Name Chip Elapsed Age Division Gender City Gender Place Div Place Age Place Pace
171 ABEL CORTEZ JR 00:24:20 37 5K M REEDLEY 1 1 O/A 04:52 min/km
182 ADAN VASQUEZ 00:26:29 13 5K M REEDLEY 2 2 O/A 05:17 min/km
167 MYLES BACON 00:26:39 38 5K M REEDLEY 3 4 O/A 05:19 min/km
181 KELLY WIGTON 00:26:29 32 5K F HANFORD 1 3 O/A 05:17 min/km
166 JACQUIE BACON 00:34:56 37 5K F REEDLEY 2 11 O/A 06:59 min/km
222 KATHERINE MARTINEZ 00:36:36 18 5K F 3 15 O/A 07:19 min/km
1 - 10
Bib Name Chip Elapsed Age Division Gender City Gender Place Div Place Age Place Pace
153 KYLE BACON 00:34:02 8 5K M REEDLEY 7 8 1 06:48 min/km
246 DAVID SANDOVAL 00:35:34 9 5K M 10 12 2 07:06 min/km
151 DILLON ORTA 00:57:49 9 5K M REEDLEY 22 53 3 11:33 min/km
155 LANNA UNRUH 01:32:06 5 5K F REEDLEY 57 84 1 18:25 min/km
11 - 20
Bib Name Chip Elapsed Age Division Gender City Gender Place Div Place Age Place Pace
247 ANTONIO SANDOVAL 00:35:35 16 5K M 11 13 1 07:07 min/km
217 ARY PANTELEON 00:36:46 13 5K M 13 16 2 07:21 min/km
232 JUAN LEMUS 00:39:04 19 5K M 17 24 3 07:48 min/km
218 KATHERINE MARTINEZ 00:44:40 18 5K F 12 31 1 08:56 min/km
241 CELESTINA RAMOS 00:48:13 12 5K F 16 35 2 09:38 min/km
277 MIRIAN VIERA 00:57:23 20 5K F 29 49 3 11:28 min/km
21 - 30
Bib Name Chip Elapsed Age Division Gender City Gender Place Div Place Age Place Pace
350 LUIS SANDOVAL 00:35:36 21 5K M 12 14 1 07:07 min/km
272 MATTHEW MORA 00:57:24 22 5K M 21 50 2 11:28 min/km
289 ANDREA VIZCARRA 00:53:13 26 5K F 20 40 1 10:38 min/km
212 CLAUDIA LARA 00:55:22 30 5K F 23 43 2 11:04 min/km
226 NEDA ROMAN 00:55:22 24 5K F 24 44 3 11:04 min/km
31 - 40
Bib Name Chip Elapsed Age Division Gender City Gender Place Div Place Age Place Pace
163 ANDREW ESCAMILLA 00:29:31 40 5K M REEDLEY 5 6 1 05:54 min/km
169 JAIME HORIO 00:38:02 35 5K M CLOVIS 15 20 2 07:36 min/km
170 ANTHONY BISHOP 00:38:03 35 5K M FRESNO 16 21 3 07:36 min/km
164 YOLANDA ESCAMILLA 00:36:52 40 5K F REEDLEY 4 17 1 07:22 min/km
165 CINDY DOMINGUE 00:37:07 34 5K F VISALIA 5 18 2 07:25 min/km
179 ASHLEY CALHOUN 00:38:47 35 5K F KINGSBURG 7 23 3 07:45 min/km
41 - 50
Bib Name Chip Elapsed Age Division Gender City Gender Place Div Place Age Place Pace
235 SAMUEL ESCARENO 00:27:00 42 5K M 4 5 1 05:24 min/km
266 JOHN HEATHCOTE 00:34:04 50 5K M 8 9 2 06:48 min/km
159 JUSTIN ESTERMANN 00:34:28 41 5K M VISALIA 9 10 3 06:53 min/km
233 CAROLINA ESTRADA 00:38:18 41 5K F 6 22 1 07:39 min/km
160 ROSA HERNANDEZ 00:41:39 50 5K F REEDLEY 9 28 2 08:19 min/km
286 ELIZA MAESTAS 00:44:26 49 5K F 11 30 3 08:53 min/km
51 - 60
Bib Name Chip Elapsed Age Division Gender City Gender Place Div Place Age Place Pace
156 DOMINGO ZAPATA 00:29:45 60 5K M REEDLEY 6 7 1 05:57 min/km
184 EDGAR ESCOBEDO 00:39:18 53 5K M CLOVIS 18 25 2 07:51 min/km
157 GLEN BORLAND 00:49:34 59 5K M DINUBA 20 37 3 09:54 min/km
183 ELIZABETH ESCOBEDO 00:39:52 52 5K F CLOVIS 8 27 1 07:58 min/km
236 MANA ESSTRADA 00:46:15 51 5K F 15 34 2 09:15 min/km
185 LORENE DOSTER 00:53:44 57 5K F REEDLEY 21 41 3 10:44 min/km
61 - 98
Bib Name Chip Elapsed Age Division Gender City Gender Place Div Place Age Place Pace
231 AGUSTIN URZUA 00:37:52 71 5K M 14 19 1 07:34 min/km
175 JIM TOEWS 00:39:52 69 5K M REEDLEY 19 26 2 07:58 min/km
213 BUCKY WEEKS 01:00:09 61 5K M 26 65 3 12:01 min/km
230 LUZ CASAREZ 00:55:38 67 5K F 25 45 1 11:07 min/km
209 MARIA QUINTANILLA 00:55:47 73 5K F 26 46 2 11:09 min/km
219 ANITA BETANCOURT 00:55:48 69 5K F 28 48 3 11:09 min/km
99 - 99
Bib Name Chip Elapsed Age Division Gender City Gender Place Div Place Age Place Pace

Race Info

Participants:
109
Last Updated:
2/24/2018 11:04:51 AM

Tip: Swipe the results table to view more.

Search for Name, Bib, City, State or Team
in the field above… by clicking the icon below…

Notes & Race Statistics

5K - 92


Male
Total Finishers Avg Pace
29 08:53

Female
Total Finishers Avg Pace
63 14:44

10K - 17


Male
Total Finishers Avg Pace
4 05:43

Female
Total Finishers Avg Pace
13 07:33
Timed using RM Timing Systems
Take control of your event
A product of US Sports Timing

Have a question or need to make a correction?

Submit a Result Correction